Pagrindinis puslapis
METAR-TAF:

METAR-TAF

Oro uostai :

Adijamanas, Turkija

platuma: 37-43-54N, ilguma: 38-28-08E, Aukštis: 675 m

Dabartinis oras

Ataskaita buvo paskelbta 51 minutes, ne 10:50 UTC
Vėjas 3 kt nuo kintamojo kryptimis
Temperatūra 22°C
Drėgmė 50%
Slėgis 1014 hPa
Matomumas 10 km arba daugiau
Su prošvaistėmis ne aukštis 3500 ft
Su prošvaistėmis ne aukštis 9000 ft

METAR: LTCP 131050Z VRB03KT 9999 BKN035 BKN090 22/11 Q1014

Laikas: 14:41 (11:41 UTC)

Prognozė

Ataskaita buvo paskelbta 1 valandą ir 1 minutes, ne 10:40 UTC
Prognozė galioja nuo 13 metu 12 UTC su 13 metu 21 UTC
Vėjas 9 kt iš Šiaurės/Šiaurės Vakarų
Matomumas 10 km arba daugiau
Išsisklaidę debesys ne aukštis 3500 ft
Su prošvaistėmis ne aukštis 10000 ft
Laikinai
nuo 13 metu 12 UTC su 13 metu 16 UTC
Vėjas 14 kt iš Šiaurės/Šiaurės Rytų
Mažai debesys ne aukštis 2500 ft, Liūtiniai kamuoliniai debesys.
Su prošvaistėmis ne aukštis 3300 ft
perkūnija, lietus,

TAF: LTCP 131040Z 1312/1321 33009KT 9999 SCT035 BKN100 TEMPO 1312/1316 03014KT -TSRA FEW025CB BKN033

Orai ataskaitas ir orų prognozės (METAR, TAF).

turimą stotys yra geltonos ir raudonos taškus žemėlapyje.

Perkelti pele per norėdami pamatyti stoties vardą.

Tada spustelėkite, norėdami matyti oro stebėjimo ir prognozės.

Norėdami pakeisti žemėlapį: spustelėkite ant žalios mygtukų su juodo kryžiaus žemyn,; žalią mygtuką su brūkšneliu, jei norite nutolinti; arba žalių rodyklių gretimoms žemėlapius.


METAR-TAF: